sensor_id;sensor_type;location;lat;lon;timestamp;pressure;altitude;pressure_sealevel;temperature;humidity
69796;BME280;57073;45.650;9.612;2022-12-22T00:02:18;99487.34;;;7.72;81.96
69796;BME280;57073;45.650;9.612;2022-12-22T00:12:38;99493.47;;;7.65;81.61
69796;BME280;57073;45.650;9.612;2022-12-22T00:22:57;99486.16;;;7.74;81.20
69796;BME280;57073;45.650;9.612;2022-12-22T00:33:18;99477.88;;;7.69;81.35
69796;BME280;57073;45.650;9.612;2022-12-22T00:43:38;99479.44;;;7.57;82.52
69796;BME280;57073;45.650;9.612;2022-12-22T00:53:56;99492.59;;;7.58;81.97
69796;BME280;57073;45.650;9.612;2022-12-22T01:04:16;99503.84;;;7.54;82.06
69796;BME280;57073;45.650;9.612;2022-12-22T01:14:35;99480.25;;;7.57;81.57
69796;BME280;57073;45.650;9.612;2022-12-22T01:24:53;99469.75;;;7.56;81.70
69796;BME280;57073;45.650;9.612;2022-12-22T01:35:24;99449.41;;;7.55;81.82
69796;BME280;57073;45.650;9.612;2022-12-22T01:45:43;99456.38;;;7.56;81.47
69796;BME280;57073;45.650;9.612;2022-12-22T01:56:03;99421.72;;;7.62;81.07
69796;BME280;57073;45.650;9.612;2022-12-22T02:06:33;99417.69;;;7.45;81.33
69796;BME280;57073;45.650;9.612;2022-12-22T02:17:09;99420.03;;;7.55;81.17
69796;BME280;57073;45.650;9.612;2022-12-22T02:27:33;99443.25;;;7.54;81.50
69796;BME280;57073;45.650;9.612;2022-12-22T02:48:31;99428.50;;;7.65;81.35
69796;BME280;57073;45.650;9.612;2022-12-22T02:58:54;99409.78;;;7.58;81.24
69796;BME280;57073;45.650;9.612;2022-12-22T03:09:13;99394.00;;;7.63;81.36
69796;BME280;57073;45.650;9.612;2022-12-22T03:19:32;99384.53;;;7.61;81.24
69796;BME280;57073;45.650;9.612;2022-12-22T03:29:51;99418.63;;;7.59;82.36
69796;BME280;57073;45.650;9.612;2022-12-22T03:39:51;99389.69;;;7.62;82.42
69796;BME280;57073;45.650;9.612;2022-12-22T03:49:52;99371.16;;;7.26;82.92
69796;BME280;57073;45.650;9.612;2022-12-22T03:59:52;99405.22;;;7.52;82.64
69796;BME280;57073;45.650;9.612;2022-12-22T04:09:52;99401.53;;;7.53;82.52
69796;BME280;57073;45.650;9.612;2022-12-22T04:20:11;99401.78;;;7.58;82.22
69796;BME280;57073;45.650;9.612;2022-12-22T04:30:12;99398.88;;;7.53;81.49
69796;BME280;57073;45.650;9.612;2022-12-22T04:40:13;99394.97;;;7.56;82.76
69796;BME280;57073;45.650;9.612;2022-12-22T04:50:13;99379.69;;;7.71;81.18
69796;BME280;57073;45.650;9.612;2022-12-22T05:00:14;99358.94;;;7.73;80.61
69796;BME280;57073;45.650;9.612;2022-12-22T05:10:14;99353.78;;;7.72;80.81
69796;BME280;57073;45.650;9.612;2022-12-22T05:20:15;99382.25;;;7.93;79.43
69796;BME280;57073;45.650;9.612;2022-12-22T05:30:17;99362.88;;;7.84;80.26
69796;BME280;57073;45.650;9.612;2022-12-22T05:40:18;99346.50;;;7.94;79.60
69796;BME280;57073;45.650;9.612;2022-12-22T05:50:21;99326.31;;;7.84;79.36
69796;BME280;57073;45.650;9.612;2022-12-22T06:00:22;99330.63;;;7.85;79.33
69796;BME280;57073;45.650;9.612;2022-12-22T06:10:22;99361.03;;;7.78;78.75
69796;BME280;57073;45.650;9.612;2022-12-22T06:20:23;99358.69;;;7.68;79.09
69796;BME280;57073;45.650;9.612;2022-12-22T06:30:23;99377.63;;;7.73;79.25
69796;BME280;57073;45.650;9.612;2022-12-22T06:40:23;99362.59;;;7.72;79.61
69796;BME280;57073;45.650;9.612;2022-12-22T06:50:24;99373.94;;;7.74;79.79
69796;BME280;57073;45.650;9.612;2022-12-22T07:00:24;99382.16;;;7.73;79.16
69796;BME280;57073;45.650;9.612;2022-12-22T07:10:25;99394.03;;;7.70;79.31
69796;BME280;57073;45.650;9.612;2022-12-22T07:20:44;99428.25;;;7.81;79.34
69796;BME280;57073;45.650;9.612;2022-12-22T07:30:44;99413.34;;;7.65;79.67
69796;BME280;57073;45.650;9.612;2022-12-22T07:40:44;99449.63;;;7.81;79.68
69796;BME280;57073;45.650;9.612;2022-12-22T07:50:45;99443.88;;;7.84;79.34
69796;BME280;57073;45.650;9.612;2022-12-22T08:00:45;99427.84;;;7.84;80.33
69796;BME280;57073;45.650;9.612;2022-12-22T08:10:45;99420.13;;;8.03;79.91
69796;BME280;57073;45.650;9.612;2022-12-22T08:20:50;99402.50;;;8.15;78.61
69796;BME280;57073;45.650;9.612;2022-12-22T08:30:51;99387.13;;;8.24;78.89
69796;BME280;57073;45.650;9.612;2022-12-22T08:40:51;99390.03;;;8.29;77.26
69796;BME280;57073;45.650;9.612;2022-12-22T08:50:52;99384.34;;;8.46;77.13
69796;BME280;57073;45.650;9.612;2022-12-22T09:00:52;99389.53;;;8.60;76.11
69796;BME280;57073;45.650;9.612;2022-12-22T09:10:52;99402.31;;;8.72;76.95
69796;BME280;57073;45.650;9.612;2022-12-22T09:20:54;99409.78;;;8.83;76.19
69796;BME280;57073;45.650;9.612;2022-12-22T09:30:54;99418.84;;;9.02;76.38
69796;BME280;57073;45.650;9.612;2022-12-22T09:40:55;99401.75;;;9.10;75.11
69796;BME280;57073;45.650;9.612;2022-12-22T09:50:56;99398.50;;;9.21;75.04
69796;BME280;57073;45.650;9.612;2022-12-22T10:11:04;99400.13;;;9.29;73.58
69796;BME280;57073;45.650;9.612;2022-12-22T10:31:15;99399.94;;;9.50;72.32
69796;BME280;57073;45.650;9.612;2022-12-22T10:41:19;99384.47;;;9.59;72.74
69796;BME280;57073;45.650;9.612;2022-12-22T10:51:23;99384.84;;;9.83;73.43
69796;BME280;57073;45.650;9.612;2022-12-22T11:01:31;99377.34;;;9.98;72.77
69796;BME280;57073;45.650;9.612;2022-12-22T11:11:40;99381.28;;;9.95;71.90
69796;BME280;57073;45.650;9.612;2022-12-22T11:21:59;99358.38;;;10.06;71.85
69796;BME280;57073;45.650;9.612;2022-12-22T12:03:20;99249.94;;;10.34;70.27
69796;BME280;57073;45.650;9.612;2022-12-22T12:24:27;99255.16;;;10.54;70.08
69796;BME280;57073;45.650;9.612;2022-12-22T12:34:33;99251.56;;;10.67;69.34
69796;BME280;57073;45.650;9.612;2022-12-22T12:44:35;99245.59;;;10.65;69.05
69796;BME280;57073;45.650;9.612;2022-12-22T12:54:43;99228.13;;;10.55;68.84
69796;BME280;57073;45.650;9.612;2022-12-22T13:15:00;99252.25;;;10.55;68.94
69796;BME280;57073;45.650;9.612;2022-12-22T13:25:01;99235.41;;;10.48;69.18
69796;BME280;57073;45.650;9.612;2022-12-22T13:35:31;99216.66;;;10.67;68.71
69796;BME280;57073;45.650;9.612;2022-12-22T13:45:49;99215.78;;;10.73;68.63
69796;BME280;57073;45.650;9.612;2022-12-22T13:55:52;99230.19;;;10.79;67.49
69796;BME280;57073;45.650;9.612;2022-12-22T14:05:52;99230.63;;;10.76;68.22
69796;BME280;57073;45.650;9.612;2022-12-22T14:16:02;99238.59;;;10.82;67.66
69796;BME280;57073;45.650;9.612;2022-12-22T14:26:05;99234.28;;;10.81;68.17
69796;BME280;57073;45.650;9.612;2022-12-22T14:46:22;99213.75;;;10.68;68.13
69796;BME280;57073;45.650;9.612;2022-12-22T14:56:24;99203.13;;;10.55;68.13
69796;BME280;57073;45.650;9.612;2022-12-22T15:16:26;99196.25;;;10.41;69.01
69796;BME280;57073;45.650;9.612;2022-12-22T15:26:26;99205.78;;;10.30;68.08
69796;BME280;57073;45.650;9.612;2022-12-22T15:36:27;99208.19;;;9.16;72.28
69796;BME280;57073;45.650;9.612;2022-12-22T15:46:27;99198.81;;;9.52;72.35
69796;BME280;57073;45.650;9.612;2022-12-22T15:56:29;99180.34;;;9.30;73.49
69796;BME280;57073;45.650;9.612;2022-12-22T16:06:32;99170.94;;;9.08;73.51
69796;BME280;57073;45.650;9.612;2022-12-22T16:16:32;99151.78;;;9.11;73.21
69796;BME280;57073;45.650;9.612;2022-12-22T16:26:32;99145.47;;;8.85;73.89
69796;BME280;57073;45.650;9.612;2022-12-22T16:36:33;99146.69;;;8.82;74.57
69796;BME280;57073;45.650;9.612;2022-12-22T16:46:35;99164.41;;;8.77;75.32
69796;BME280;57073;45.650;9.612;2022-12-22T16:56:37;99166.69;;;8.53;75.32
69796;BME280;57073;45.650;9.612;2022-12-22T17:06:39;99167.69;;;8.39;75.52
69796;BME280;57073;45.650;9.612;2022-12-22T17:16:39;99166.47;;;8.35;74.76
69796;BME280;57073;45.650;9.612;2022-12-22T17:26:40;99160.28;;;8.21;75.46
69796;BME280;57073;45.650;9.612;2022-12-22T17:36:42;99174.63;;;7.86;75.56
69796;BME280;57073;45.650;9.612;2022-12-22T17:46:43;99200.56;;;8.06;76.57
69796;BME280;57073;45.650;9.612;2022-12-22T17:56:43;99191.50;;;7.94;76.45
69796;BME280;57073;45.650;9.612;2022-12-22T18:06:44;99177.09;;;7.88;76.55
69796;BME280;57073;45.650;9.612;2022-12-22T18:16:44;99168.78;;;7.49;75.96
69796;BME280;57073;45.650;9.612;2022-12-22T18:26:45;99166.16;;;7.63;76.63
69796;BME280;57073;45.650;9.612;2022-12-22T18:36:46;99184.06;;;7.76;76.12
69796;BME280;57073;45.650;9.612;2022-12-22T18:46:46;99175.84;;;7.77;76.01
69796;BME280;57073;45.650;9.612;2022-12-22T18:56:47;99161.72;;;8.03;75.22
69796;BME280;57073;45.650;9.612;2022-12-22T19:06:48;99154.31;;;7.99;75.19
69796;BME280;57073;45.650;9.612;2022-12-22T19:16:48;99162.72;;;7.89;74.07
69796;BME280;57073;45.650;9.612;2022-12-22T19:26:49;99172.19;;;7.92;73.78
69796;BME280;57073;45.650;9.612;2022-12-22T19:36:49;99183.28;;;7.89;73.86
69796;BME280;57073;45.650;9.612;2022-12-22T19:46:51;99163.16;;;7.93;73.85
69796;BME280;57073;45.650;9.612;2022-12-22T19:56:54;99158.66;;;8.00;74.37
69796;BME280;57073;45.650;9.612;2022-12-22T20:06:55;99166.03;;;7.91;74.79
69796;BME280;57073;45.650;9.612;2022-12-22T20:16:55;99170.06;;;7.60;76.30
69796;BME280;57073;45.650;9.612;2022-12-22T20:26:56;99162.09;;;7.19;78.60
69796;BME280;57073;45.650;9.612;2022-12-22T20:36:56;99173.25;;;7.36;77.06
69796;BME280;57073;45.650;9.612;2022-12-22T20:46:59;99189.63;;;7.26;78.85
69796;BME280;57073;45.650;9.612;2022-12-22T20:56:59;99195.59;;;6.58;83.11
69796;BME280;57073;45.650;9.612;2022-12-22T21:06:59;99195.53;;;7.15;81.13
69796;BME280;57073;45.650;9.612;2022-12-22T21:17:00;99193.72;;;7.22;80.66
69796;BME280;57073;45.650;9.612;2022-12-22T21:27:00;99202.25;;;7.04;82.70
69796;BME280;57073;45.650;9.612;2022-12-22T21:37:01;99203.09;;;6.48;85.54
69796;BME280;57073;45.650;9.612;2022-12-22T21:47:02;99230.91;;;6.39;86.17
69796;BME280;57073;45.650;9.612;2022-12-22T21:57:03;99248.03;;;6.51;85.19
69796;BME280;57073;45.650;9.612;2022-12-22T22:07:03;99226.91;;;6.28;87.04
69796;BME280;57073;45.650;9.612;2022-12-22T22:17:04;99232.31;;;6.63;86.41
69796;BME280;57073;45.650;9.612;2022-12-22T22:27:04;99225.97;;;6.92;84.20
69796;BME280;57073;45.650;9.612;2022-12-22T22:37:04;99214.34;;;7.00;83.41
69796;BME280;57073;45.650;9.612;2022-12-22T22:47:05;99178.03;;;7.05;82.98
69796;BME280;57073;45.650;9.612;2022-12-22T22:57:05;99222.97;;;6.74;85.54
69796;BME280;57073;45.650;9.612;2022-12-22T23:07:06;99218.13;;;6.84;85.84
69796;BME280;57073;45.650;9.612;2022-12-22T23:17:06;99205.72;;;6.69;87.73
69796;BME280;57073;45.650;9.612;2022-12-22T23:27:07;99244.69;;;7.27;84.65
69796;BME280;57073;45.650;9.612;2022-12-22T23:37:07;99209.97;;;7.27;83.73
69796;BME280;57073;45.650;9.612;2022-12-22T23:47:08;99192.41;;;7.04;85.94
69796;BME280;57073;45.650;9.612;2022-12-22T23:57:08;99215.88;;;6.59;89.82
